Main page
METAR-TAF:

METAR-TAF

Airports :

Thomas County Airport

Thedford, Nebraska, United States

latitude: 41-57-43N, longitude: 100-34-08W, elevation: 2926 ft

Current weather observation

The report was made 25 minutes ago, at 13:55 UTC
Wind 9 mph from the West
Temperature 36°F
Humidity 51%
Pressure 29.97 in. Hg
Visibility: 10 miles
Clear sky

METAR: KTIF 221355Z AUTO 27008KT 10SM CLR 02/M07 A2997 RMK AO2 T00241074

Time: 08:20 (14:20 UTC)


TAF: missing

Weather observations and forecasts of more than 4000 airports (METAR and TAF reports).

The available stations are represented by yellow and red dots on the map.

Hover mouse over dot to see the name of the station.

Then click to see weather observations and forecasts.

To change the map : click on the green buttons with a black cross to zoom in, on the green button with a dash to zoom out, or on the green arrows for adjacent maps.


METAR-TAF: